Shirley, Pennsylvania
Current Conditions -  °F | °C
As of 12:53 PM on Friday 24 Oct 2014 (Local Time) from KAOO Reporting Station
Clear Clear  
Wind Chill: 57°   Ceiling: Unl
Heat Index: 57°   Visibility: 10mi
Dew Point: 39°   Wind: 10mph
Humidity: 51%   Direction: 300°WNW
Pressure: 30.01"   Gusts: NA
Location:  40.4281°N, 77.8329°W
Report Text: KAOO 241653Z AUTO 30009KT 10SM CLR 14/04 A3001 RMK AO2 SLP162 T01390039
Loading
Personal Weather Stations






























Interactive Weather Map
Tropical Storm Tracking
New forecast layout! Learn more

10-Day Weather Forecast

Advertisements
Track Severe Weather on mobile